createdAt,value
2022-12-24T00:01:20.197Z,18.50
2022-12-24T00:03:48.378Z,21.70
2022-12-24T00:06:18.538Z,20.40
2022-12-24T00:08:46.789Z,21.50
2022-12-24T00:11:14.960Z,22.40
2022-12-24T00:13:43.377Z,21.70
2022-12-24T00:16:11.433Z,20.70
2022-12-24T00:18:45.541Z,21.50
2022-12-24T00:21:15.280Z,22.10
2022-12-24T00:23:43.481Z,24.00
2022-12-24T00:26:11.929Z,20.10
2022-12-24T00:28:40.295Z,24.00
2022-12-24T00:31:16.020Z,20.50
2022-12-24T00:33:45.750Z,20.70
2022-12-24T00:36:13.843Z,20.90
2022-12-24T00:38:41.924Z,19.10
2022-12-24T00:41:25.124Z,22.10
2022-12-24T00:43:58.599Z,22.10
2022-12-24T00:46:27.809Z,19.90
2022-12-24T00:48:55.911Z,21.80
2022-12-24T00:51:24.425Z,19.90
2022-12-24T00:53:52.909Z,23.40
2022-12-24T00:56:21.662Z,21.30
2022-12-24T00:58:50.131Z,24.90
2022-12-24T01:01:18.914Z,22.40
2022-12-24T01:03:47.458Z,20.30
2022-12-24T01:06:17.067Z,22.40
2022-12-24T01:08:45.551Z,23.30
2022-12-24T01:11:14.096Z,24.60
2022-12-24T01:13:42.142Z,21.80
2022-12-24T01:16:14.910Z,20.30
2022-12-24T01:18:42.994Z,19.80
2022-12-24T01:21:11.105Z,20.10
2022-12-24T01:23:39.126Z,17.90
2022-12-24T01:26:07.355Z,21.80
2022-12-24T01:28:35.426Z,20.70
2022-12-24T01:31:03.629Z,24.70
2022-12-24T01:33:31.704Z,26.70
2022-12-24T01:36:02.442Z,30.20
2022-12-24T01:38:30.509Z,25.80
2022-12-24T01:41:17.308Z,23.60
2022-12-24T01:43:45.452Z,22.90
2022-12-24T01:46:32.813Z,21.70
2022-12-24T01:49:02.819Z,22.40
2022-12-24T01:51:34.040Z,21.30
2022-12-24T01:54:10.075Z,23.40
2022-12-24T01:56:40.591Z,23.00
2022-12-24T01:59:10.770Z,24.80
2022-12-24T02:01:39.860Z,23.00
2022-12-24T02:04:26.755Z,22.00
2022-12-24T02:06:54.781Z,18.90
2022-12-24T02:09:22.938Z,23.60
2022-12-24T02:11:51.022Z,22.30
2022-12-24T02:14:19.067Z,24.00
2022-12-24T02:16:52.545Z,20.50
2022-12-24T02:19:39.493Z,25.00
2022-12-24T02:22:07.554Z,25.20
2022-12-24T02:24:46.867Z,24.00
2022-12-24T02:27:20.279Z,22.60
2022-12-24T02:30:07.004Z,20.50
2022-12-24T02:32:35.097Z,21.40
2022-12-24T02:35:11.032Z,19.70
2022-12-24T02:37:49.573Z,20.90
2022-12-24T02:40:25.786Z,23.30
2022-12-24T02:42:56.443Z,24.30
2022-12-24T02:45:28.469Z,19.50
2022-12-24T02:47:57.088Z,22.10
2022-12-24T02:50:25.279Z,22.80
2022-12-24T02:52:53.660Z,21.60
2022-12-24T02:55:23.547Z,23.10
2022-12-24T02:57:51.610Z,21.10
2022-12-24T03:00:21.034Z,22.40
2022-12-24T03:03:08.456Z,23.00
2022-12-24T03:05:36.531Z,23.60
2022-12-24T03:08:13.803Z,22.00
2022-12-24T03:10:44.827Z,18.90
2022-12-24T03:14:03.561Z,21.20
2022-12-24T03:16:31.839Z,21.50
2022-12-24T03:19:00.357Z,22.60
2022-12-24T03:21:31.612Z,21.40
2022-12-24T03:23:59.851Z,22.50
2022-12-24T03:26:29.679Z,23.60
2022-12-24T03:28:57.773Z,22.50
2022-12-24T03:31:25.976Z,20.20
2022-12-24T03:33:54.118Z,19.00
2022-12-24T03:36:22.247Z,23.50
2022-12-24T03:38:50.319Z,20.00
2022-12-24T03:41:18.354Z,17.30
2022-12-24T03:43:46.405Z,20.80
2022-12-24T03:46:14.879Z,21.60
2022-12-24T03:48:42.991Z,20.50
2022-12-24T03:51:18.784Z,21.70
2022-12-24T03:53:47.148Z,18.30
2022-12-24T03:56:15.632Z,23.40
2022-12-24T03:58:43.719Z,24.90
2022-12-24T04:01:11.847Z,20.20
2022-12-24T04:03:40.002Z,20.40
2022-12-24T04:06:09.995Z,21.50
2022-12-24T04:08:38.491Z,21.80
2022-12-24T04:11:09.853Z,21.20
2022-12-24T04:13:38.290Z,22.60
2022-12-24T04:16:07.615Z,20.60
2022-12-24T04:18:36.450Z,18.00
2022-12-24T04:21:05.198Z,18.60
2022-12-24T04:23:33.973Z,20.60
2022-12-24T04:26:02.796Z,17.60
2022-12-24T04:28:31.465Z,18.90
2022-12-24T04:31:03.521Z,19.70
2022-12-24T04:33:31.730Z,22.20
2022-12-24T04:36:00.444Z,21.40
2022-12-24T04:38:29.112Z,18.10
2022-12-24T04:41:05.371Z,19.90
2022-12-24T04:43:33.695Z,20.90
2022-12-24T04:46:05.534Z,21.30
2022-12-24T04:48:33.998Z,19.60
2022-12-24T04:51:03.655Z,47.70
2022-12-24T04:53:32.060Z,41.00
2022-12-24T04:56:00.404Z,28.90
2022-12-24T04:58:28.912Z,24.70
2022-12-24T05:00:57.054Z,19.90
2022-12-24T05:03:25.361Z,19.30
2022-12-24T05:05:59.626Z,21.40
2022-12-24T05:08:29.779Z,23.80
2022-12-24T05:10:58.530Z,19.60
2022-12-24T05:13:34.220Z,22.80
2022-12-24T05:16:05.892Z,23.80
2022-12-24T05:18:34.128Z,19.30
2022-12-24T05:21:02.198Z,19.90
2022-12-24T05:23:49.071Z,20.30
2022-12-24T05:26:24.774Z,19.50
2022-12-24T05:28:54.071Z,20.10
2022-12-24T05:31:22.985Z,18.00
2022-12-24T05:33:51.580Z,18.30
2022-12-24T05:36:19.676Z,16.60
2022-12-24T05:38:47.731Z,21.30
2022-12-24T05:41:15.803Z,19.80
2022-12-24T05:43:43.993Z,24.30
2022-12-24T05:46:13.205Z,23.70
2022-12-24T05:48:41.436Z,25.40
2022-12-24T05:51:12.107Z,24.90
2022-12-24T05:53:40.479Z,31.30
2022-12-24T05:56:10.134Z,26.40
2022-12-24T05:58:39.219Z,23.60
2022-12-24T06:01:08.742Z,23.50
2022-12-24T06:03:37.083Z,24.40
2022-12-24T06:06:10.416Z,25.60
2022-12-24T06:08:39.963Z,26.40
2022-12-24T06:11:09.980Z,22.10
2022-12-24T06:13:40.181Z,21.40
2022-12-24T06:16:09.741Z,23.70
2022-12-24T06:18:37.885Z,23.30
2022-12-24T06:21:06.669Z,21.50
2022-12-24T06:23:35.932Z,20.00
2022-12-24T06:26:05.108Z,19.50
2022-12-24T06:28:34.497Z,19.60
2022-12-24T06:31:04.149Z,18.50
2022-12-24T06:33:33.787Z,21.00
2022-12-24T06:36:01.937Z,17.20
2022-12-24T06:38:31.143Z,19.80
2022-12-24T06:40:59.234Z,22.20
2022-12-24T06:43:27.402Z,23.20
2022-12-24T06:45:55.588Z,21.30
2022-12-24T06:48:23.712Z,25.90
2022-12-24T06:50:52.499Z,20.40
2022-12-24T06:53:20.543Z,24.50
2022-12-24T06:55:48.548Z,23.20
2022-12-24T06:58:16.523Z,20.70
2022-12-24T07:00:44.590Z,23.10
2022-12-24T07:03:12.643Z,21.20
2022-12-24T07:05:41.149Z,18.60
2022-12-24T07:08:09.638Z,17.00
2022-12-24T07:10:37.699Z,19.50
2022-12-24T07:13:05.736Z,22.70
2022-12-24T07:15:33.825Z,21.20
2022-12-24T07:18:01.856Z,20.80
2022-12-24T07:20:29.955Z,22.10
2022-12-24T07:22:58.055Z,20.20
2022-12-24T07:25:26.186Z,26.10
2022-12-24T07:27:54.184Z,30.50
2022-12-24T07:30:22.252Z,24.90
2022-12-24T07:32:50.268Z,20.90
2022-12-24T07:35:18.395Z,27.10
2022-12-24T07:37:46.457Z,20.60
2022-12-24T07:40:14.522Z,22.40
2022-12-24T07:42:42.589Z,21.70
2022-12-24T07:45:10.986Z,19.00
2022-12-24T07:47:39.289Z,22.20
2022-12-24T07:50:07.583Z,22.90
2022-12-24T07:52:35.580Z,17.70
2022-12-24T07:55:03.716Z,21.30
2022-12-24T07:57:32.270Z,21.70
2022-12-24T08:00:00.367Z,22.00
2022-12-24T08:02:29.782Z,16.80
2022-12-24T08:04:58.066Z,18.30
2022-12-24T08:07:26.860Z,15.70
2022-12-24T08:09:55.014Z,21.60
2022-12-24T08:12:23.801Z,20.30
2022-12-24T08:14:52.198Z,23.40
2022-12-24T08:17:20.242Z,27.10
2022-12-24T08:19:48.281Z,21.90
2022-12-24T08:22:16.565Z,19.80
2022-12-24T08:24:44.627Z,20.50
2022-12-24T08:27:13.304Z,22.00
2022-12-24T08:29:42.246Z,20.20
2022-12-24T08:32:10.494Z,23.90
2022-12-24T08:34:38.701Z,20.50
2022-12-24T08:37:06.771Z,20.40
2022-12-24T08:39:34.847Z,24.20
2022-12-24T08:42:03.042Z,22.80
2022-12-24T08:44:31.147Z,23.10
2022-12-24T08:46:59.244Z,19.40
2022-12-24T08:49:27.332Z,28.90
2022-12-24T08:51:55.438Z,26.80
2022-12-24T08:54:25.525Z,25.80
2022-12-24T08:56:53.576Z,22.60
2022-12-24T08:59:22.019Z,20.20
2022-12-24T09:01:50.749Z,20.80
2022-12-24T09:04:20.489Z,23.80
2022-12-24T09:06:48.683Z,17.50
2022-12-24T09:09:17.156Z,21.00
2022-12-24T09:11:45.706Z,27.50
2022-12-24T09:14:14.764Z,23.80
2022-12-24T09:16:42.924Z,19.10
2022-12-24T09:19:10.971Z,24.40
2022-12-24T09:21:39.259Z,19.00
2022-12-24T09:24:07.659Z,17.70
2022-12-24T09:26:36.728Z,16.90
2022-12-24T09:29:05.040Z,20.20
2022-12-24T09:31:33.339Z,22.10
2022-12-24T09:34:01.900Z,20.60
2022-12-24T09:36:29.968Z,19.10
2022-12-24T09:38:58.167Z,18.00
2022-12-24T09:41:38.784Z,15.60
2022-12-24T09:44:27.093Z,19.00
2022-12-24T09:46:55.352Z,18.60
2022-12-24T09:49:25.958Z,19.60
2022-12-24T09:52:00.625Z,17.90
2022-12-24T09:54:31.234Z,18.70
2022-12-24T09:57:02.125Z,17.20
2022-12-24T09:59:41.216Z,17.00
2022-12-24T10:02:14.044Z,19.00
2022-12-24T10:04:43.037Z,18.20
2022-12-24T10:07:25.665Z,21.00
2022-12-24T10:10:19.453Z,20.10
2022-12-24T10:12:59.631Z,17.60
2022-12-24T10:15:32.811Z,19.30
2022-12-24T10:18:15.499Z,16.80
2022-12-24T10:21:02.264Z,20.00
2022-12-24T10:23:42.627Z,25.30
2022-12-24T10:26:43.029Z,19.00
2022-12-24T10:29:34.902Z,24.00
2022-12-24T10:32:09.105Z,25.80
2022-12-24T10:34:44.718Z,24.10
2022-12-24T10:37:17.737Z,25.40
2022-12-24T10:39:45.953Z,24.30
2022-12-24T10:42:14.995Z,21.70
2022-12-24T10:44:43.923Z,24.80
2022-12-24T10:47:40.839Z,37.70
2022-12-24T10:50:31.116Z,26.00
2022-12-24T10:53:02.455Z,24.00
2022-12-24T10:55:30.614Z,27.10
2022-12-24T10:58:03.170Z,17.10
2022-12-24T11:00:35.787Z,18.80
2022-12-24T11:03:24.668Z,17.10
2022-12-24T11:06:03.443Z,18.60
2022-12-24T11:08:32.502Z,15.80
2022-12-24T11:11:13.086Z,16.30
2022-12-24T11:13:45.766Z,16.80
2022-12-24T11:16:16.773Z,14.10
2022-12-24T11:18:51.341Z,17.60
2022-12-24T11:21:21.437Z,18.30
2022-12-24T11:23:55.243Z,19.20
2022-12-24T11:26:24.680Z,19.30
2022-12-24T11:29:11.693Z,20.10
2022-12-24T11:31:40.519Z,18.30
2022-12-24T11:34:21.931Z,22.60
2022-12-24T11:36:53.613Z,25.80
2022-12-24T11:39:23.239Z,29.10
2022-12-24T11:41:52.364Z,24.80
2022-12-24T11:44:25.858Z,21.80
2022-12-24T11:46:57.410Z,17.40
2022-12-24T11:49:25.643Z,23.40
2022-12-24T11:52:03.011Z,17.70
2022-12-24T11:54:32.462Z,17.10
2022-12-24T11:57:02.121Z,19.50
2022-12-24T11:59:33.294Z,20.80
2022-12-24T12:02:10.742Z,19.30
2022-12-24T12:04:40.657Z,21.40
2022-12-24T12:07:20.560Z,21.20
2022-12-24T12:09:48.610Z,29.40
2022-12-24T12:12:23.493Z,30.10
2022-12-24T12:14:54.464Z,27.60
2022-12-24T12:17:41.605Z,21.60
2022-12-24T12:20:09.774Z,20.10
2022-12-24T12:23:01.252Z,25.30
2022-12-24T12:25:43.360Z,26.90
2022-12-24T12:28:27.430Z,39.70
2022-12-24T12:31:09.091Z,29.50
2022-12-24T12:33:45.650Z,34.50
2022-12-24T12:36:15.033Z,29.90
2022-12-24T12:38:43.089Z,33.90
2022-12-24T12:41:11.186Z,29.00
2022-12-24T12:43:41.998Z,33.80
2022-12-24T12:46:22.871Z,24.10
2022-12-24T12:49:12.968Z,24.10
2022-12-24T12:51:43.891Z,27.40
2022-12-24T12:54:15.266Z,26.30
2022-12-24T12:56:47.096Z,28.80
2022-12-24T12:59:15.115Z,22.80
2022-12-24T13:01:49.797Z,26.10
2022-12-24T13:04:26.871Z,26.60
2022-12-24T13:07:13.441Z,18.90
2022-12-24T13:09:47.558Z,28.90
2022-12-24T13:12:44.683Z,28.90
2022-12-24T13:15:22.247Z,18.30
2022-12-24T13:17:53.180Z,19.00
2022-12-24T13:20:33.922Z,28.00
2022-12-24T13:23:15.028Z,29.90
2022-12-24T13:25:45.697Z,31.20
2022-12-24T13:28:16.900Z,29.90
2022-12-24T13:30:45.553Z,30.90
2022-12-24T13:33:14.911Z,28.90
2022-12-24T13:36:04.255Z,29.40
2022-12-24T13:38:33.765Z,24.30
2022-12-24T13:41:24.212Z,24.00
2022-12-24T13:44:02.453Z,27.20
2022-12-24T13:46:50.977Z,27.70
2022-12-24T13:49:27.327Z,27.10
2022-12-24T13:52:18.950Z,26.50
2022-12-24T13:54:59.202Z,33.40
2022-12-24T13:57:31.371Z,37.90
2022-12-24T14:00:05.600Z,34.80
2022-12-24T14:02:46.959Z,29.90
2022-12-24T14:05:22.995Z,30.40
2022-12-24T14:07:51.639Z,27.40
2022-12-24T14:10:21.815Z,27.50
2022-12-24T14:12:50.624Z,28.40
2022-12-24T14:15:37.320Z,26.80
2022-12-24T14:18:05.841Z,26.00
2022-12-24T14:20:34.061Z,25.80
2022-12-24T14:23:03.327Z,22.90
2022-12-24T14:25:31.813Z,26.20
2022-12-24T14:28:07.634Z,29.30
2022-12-24T14:30:35.671Z,27.10
2022-12-24T14:33:03.867Z,31.80
2022-12-24T14:35:36.741Z,31.30
2022-12-24T14:38:05.748Z,30.00
2022-12-24T14:40:42.441Z,30.90
2022-12-24T14:43:13.344Z,31.20
2022-12-24T14:45:51.060Z,31.60
2022-12-24T14:48:21.660Z,37.10
2022-12-24T14:50:49.577Z,31.90
2022-12-24T14:53:36.008Z,34.10
2022-12-24T14:56:14.821Z,26.80
2022-12-24T14:58:43.775Z,29.00
2022-12-24T15:01:21.171Z,27.60
2022-12-24T15:04:12.222Z,29.20
2022-12-24T15:06:43.012Z,27.80
2022-12-24T15:09:19.762Z,26.70
2022-12-24T15:11:48.999Z,28.40
2022-12-24T15:14:17.499Z,30.40
2022-12-24T15:16:55.108Z,29.60
2022-12-24T15:19:33.847Z,29.80
2022-12-24T15:22:03.104Z,33.10
2022-12-24T15:24:32.785Z,40.00
2022-12-24T15:27:03.225Z,40.50
2022-12-24T15:29:32.661Z,54.60
2022-12-24T15:32:01.458Z,36.90
2022-12-24T15:34:39.967Z,37.00
2022-12-24T15:37:10.779Z,28.40
2022-12-24T15:39:39.675Z,31.20
2022-12-24T15:42:14.704Z,45.30
2022-12-24T15:45:01.335Z,35.30
2022-12-24T15:47:38.108Z,32.00
2022-12-24T15:50:18.889Z,28.80
2022-12-24T15:52:47.566Z,32.50
2022-12-24T15:55:39.621Z,28.10
2022-12-24T15:58:18.227Z,25.10
2022-12-24T16:01:00.511Z,28.80
2022-12-24T16:03:28.676Z,26.60
2022-12-24T16:06:00.633Z,27.40
2022-12-24T16:08:30.479Z,28.70
2022-12-24T16:11:17.835Z,26.20
2022-12-24T16:13:51.836Z,23.40
2022-12-24T16:16:21.073Z,32.80
2022-12-24T16:18:57.163Z,28.70
2022-12-24T16:21:30.571Z,28.50
2022-12-24T16:24:06.473Z,30.90
2022-12-24T16:26:34.881Z,27.10
2022-12-24T16:29:03.009Z,27.50
2022-12-24T16:31:36.412Z,31.10
2022-12-24T16:34:05.465Z,25.50
2022-12-24T16:36:33.587Z,33.00
2022-12-24T16:39:20.451Z,30.20
2022-12-24T16:42:07.432Z,24.80
2022-12-24T16:44:35.558Z,25.70
2022-12-24T16:47:04.405Z,24.10
2022-12-24T16:49:32.447Z,34.20
2022-12-24T16:52:00.407Z,28.70
2022-12-24T16:54:30.184Z,30.00
2022-12-24T16:56:58.319Z,31.20
2022-12-24T16:59:26.300Z,30.70
2022-12-24T17:01:54.554Z,28.30
2022-12-24T17:04:22.840Z,33.60
2022-12-24T17:06:51.135Z,29.80
2022-12-24T17:09:19.592Z,25.40
2022-12-24T17:11:47.641Z,20.50
2022-12-24T17:14:20.348Z,21.00
2022-12-24T17:16:49.107Z,17.10
2022-12-24T17:19:18.274Z,18.70
2022-12-24T17:21:46.783Z,18.20
2022-12-24T17:24:14.967Z,19.50
2022-12-24T17:26:45.858Z,20.70
2022-12-24T17:29:14.223Z,20.40
2022-12-24T17:31:43.190Z,28.10
2022-12-24T17:34:11.312Z,30.70
2022-12-24T17:36:40.403Z,38.40
2022-12-24T17:39:08.476Z,37.20
2022-12-24T17:41:36.453Z,41.40
2022-12-24T17:44:05.334Z,22.60
2022-12-24T17:46:33.424Z,31.80
2022-12-24T17:49:01.917Z,46.10
2022-12-24T17:51:33.480Z,50.20
2022-12-24T17:54:01.986Z,59.10
2022-12-24T17:56:30.026Z,65.10
2022-12-24T17:58:58.472Z,61.10
2022-12-24T18:01:30.576Z,59.70
2022-12-24T18:04:00.496Z,53.40
2022-12-24T18:06:28.856Z,48.80
2022-12-24T18:08:57.374Z,53.20
2022-12-24T18:11:27.434Z,53.00
2022-12-24T18:13:56.574Z,67.90
2022-12-24T18:16:25.979Z,49.40
2022-12-24T18:18:54.505Z,52.40
2022-12-24T18:21:24.667Z,48.90
2022-12-24T18:23:52.904Z,50.60
2022-12-24T18:26:21.524Z,49.50
2022-12-24T18:28:49.545Z,49.60
2022-12-24T18:31:18.871Z,51.40
2022-12-24T18:33:47.558Z,54.20
2022-12-24T18:36:15.638Z,65.20
2022-12-24T18:38:43.790Z,96.30
2022-12-24T18:41:16.051Z,107.20
2022-12-24T18:43:44.248Z,58.00
2022-12-24T18:46:14.066Z,57.80
2022-12-24T18:48:42.098Z,45.70
2022-12-24T18:51:10.722Z,56.60
2022-12-24T18:53:39.318Z,42.40
2022-12-24T18:56:09.183Z,46.70
2022-12-24T18:58:41.294Z,35.30
2022-12-24T19:01:42.361Z,30.20
2022-12-24T19:04:10.852Z,34.80
2022-12-24T19:06:39.403Z,29.80
2022-12-24T19:09:07.986Z,32.30
2022-12-24T19:11:37.795Z,26.90
2022-12-24T19:14:06.772Z,25.90
2022-12-24T19:16:35.662Z,24.40
2022-12-24T19:19:04.639Z,25.60
2022-12-24T19:21:32.786Z,23.20
2022-12-24T19:24:01.068Z,23.00
2022-12-24T19:26:29.070Z,23.60
2022-12-24T19:28:57.077Z,20.50
2022-12-24T19:31:25.586Z,22.60
2022-12-24T19:33:55.232Z,25.60
2022-12-24T19:36:24.420Z,24.60
2022-12-24T19:38:52.761Z,28.00
2022-12-24T19:41:22.367Z,27.50
2022-12-24T19:43:51.301Z,27.00
2022-12-24T19:46:24.619Z,27.20
2022-12-24T19:48:54.075Z,28.10
2022-12-24T19:51:22.847Z,33.50
2022-12-24T19:53:52.432Z,26.80
2022-12-24T19:56:21.772Z,26.60
2022-12-24T19:58:50.420Z,27.80
2022-12-24T20:01:20.250Z,25.80
2022-12-24T20:03:49.122Z,27.40
2022-12-24T20:06:18.199Z,25.40
2022-12-24T20:08:46.583Z,28.40
2022-12-24T20:11:15.895Z,27.30
2022-12-24T20:13:44.314Z,26.00
2022-12-24T20:16:14.143Z,25.10
2022-12-24T20:18:42.253Z,24.90
2022-12-24T20:21:11.530Z,23.60
2022-12-24T20:23:44.582Z,25.10
2022-12-24T20:26:13.857Z,25.20
2022-12-24T20:28:42.267Z,24.40
2022-12-24T20:31:12.358Z,26.30
2022-12-24T20:33:41.458Z,26.90
2022-12-24T20:36:10.065Z,22.60
2022-12-24T20:38:38.635Z,25.20
2022-12-24T20:41:09.911Z,23.50
2022-12-24T20:43:45.108Z,23.40
2022-12-24T20:46:16.802Z,26.50
2022-12-24T20:48:45.153Z,24.90
2022-12-24T20:51:21.030Z,23.60
2022-12-24T20:53:55.560Z,27.20
2022-12-24T20:56:23.706Z,24.80
2022-12-24T20:58:51.827Z,26.30
2022-12-24T21:01:25.098Z,34.10
2022-12-24T21:03:54.197Z,33.80
2022-12-24T21:06:23.206Z,30.70
2022-12-24T21:08:51.897Z,28.00
2022-12-24T21:11:38.661Z,27.30
2022-12-24T21:14:07.062Z,27.90
2022-12-24T21:16:35.942Z,28.50
2022-12-24T21:19:04.444Z,27.90
2022-12-24T21:21:32.643Z,27.70
2022-12-24T21:24:01.029Z,27.50
2022-12-24T21:26:29.230Z,29.20
2022-12-24T21:28:57.409Z,27.00
2022-12-24T21:31:25.550Z,27.40
2022-12-24T21:33:53.779Z,26.30
2022-12-24T21:36:21.761Z,26.90
2022-12-24T21:38:49.832Z,28.60
2022-12-24T21:41:19.636Z,29.10
2022-12-24T21:43:47.867Z,27.20
2022-12-24T21:46:17.763Z,28.50
2022-12-24T21:49:04.504Z,30.60
2022-12-24T21:51:32.961Z,25.10
2022-12-24T21:54:19.247Z,29.80
2022-12-24T21:57:06.087Z,26.80
2022-12-24T21:59:34.133Z,27.30
2022-12-24T22:02:02.463Z,28.30
2022-12-24T22:04:31.432Z,29.30
2022-12-24T22:07:18.292Z,28.30
2022-12-24T22:10:04.992Z,24.20
2022-12-24T22:12:33.921Z,29.00
2022-12-24T22:15:02.164Z,27.30
2022-12-24T22:17:30.151Z,28.50
2022-12-24T22:19:58.245Z,27.40
2022-12-24T22:22:26.253Z,28.30
2022-12-24T22:24:54.366Z,29.20
2022-12-24T22:27:23.803Z,28.10
2022-12-24T22:29:51.841Z,30.30
2022-12-24T22:32:19.960Z,28.10
2022-12-24T22:34:49.703Z,27.70
2022-12-24T22:37:17.818Z,27.60
2022-12-24T22:39:45.878Z,28.40
2022-12-24T22:42:13.871Z,27.50
2022-12-24T22:44:41.897Z,31.80
2022-12-24T22:47:10.031Z,30.10
2022-12-24T22:49:38.045Z,29.20
2022-12-24T22:52:06.107Z,30.70
2022-12-24T22:54:34.167Z,29.60
2022-12-24T22:57:02.239Z,29.40
2022-12-24T22:59:30.258Z,27.30
2022-12-24T23:01:58.758Z,27.00
2022-12-24T23:04:27.048Z,28.60
2022-12-24T23:06:55.148Z,28.10
2022-12-24T23:09:23.139Z,29.20
2022-12-24T23:11:51.132Z,28.90
2022-12-24T23:14:39.132Z,32.30
2022-12-24T23:17:08.229Z,32.40
2022-12-24T23:19:36.917Z,38.80
2022-12-24T23:22:05.816Z,40.40
2022-12-24T23:24:34.847Z,57.40
2022-12-24T23:27:02.894Z,54.70
2022-12-24T23:29:31.835Z,47.90
2022-12-24T23:31:59.949Z,42.30
2022-12-24T23:34:28.112Z,49.00
2022-12-24T23:36:56.322Z,35.70
2022-12-24T23:39:24.428Z,28.70
2022-12-24T23:41:52.627Z,32.90
2022-12-24T23:44:21.059Z,42.50
2022-12-24T23:46:51.271Z,40.80
2022-12-24T23:49:19.306Z,46.10
2022-12-24T23:51:47.264Z,34.00
2022-12-24T23:54:15.231Z,33.40
2022-12-24T23:56:43.216Z,33.20
2022-12-24T23:59:11.219Z,31.40
